AVA8516 SKRG-SKRH
Flight info
| Callsign | AVA8516 |
|---|---|
| Flight time | 1h 1m |
| Altitude | 36000 |
| Route | BIVIG1B BIVIG DCT GERNA DCT ELB DCT ISLAG DCT VUP VUP1S |
| Aircraft | A320/M-SDE3FGHIRWY/LB1 |
Departure
| Time | 2026-05-07 23:39 |
|---|---|
| Airport | Jose Maria Córdova International Airport (SKRG) |
Arrival
| Time | 2026-05-08 00:40 |
|---|---|
| Airport | Almirante Padilla Airport (SKRH) |
| Time | Latitude | Longitude | Altitude | Speed | Heading |
|---|---|---|---|---|---|
| 2026-05-07 22:54 | 6.17070 | -75.42694 | 7016 ft | 0 kts | 292° |
| 2026-05-07 23:28 | 6.17064 | -75.42681 | 7017 ft | 4 kts | 304° |
| 2026-05-07 23:28 | 6.17046 | -75.42664 | 7017 ft | 4 kts | 351° |
| 2026-05-07 23:28 | 6.17020 | -75.42667 | 7017 ft | 4 kts | 27° |
| 2026-05-07 23:29 | 6.17008 | -75.42674 | 7020 ft | 0 kts | 37° |
| 2026-05-07 23:31 | 6.17010 | -75.42672 | 7020 ft | 2 kts | 37° |
| 2026-05-07 23:31 | 6.17032 | -75.42653 | 7019 ft | 6 kts | 47° |
| 2026-05-07 23:32 | 6.17042 | -75.42597 | 7016 ft | 10 kts | 110° |
| 2026-05-07 23:32 | 6.16980 | -75.42552 | 7017 ft | 13 kts | 150° |
| 2026-05-07 23:32 | 6.16887 | -75.42498 | 7019 ft | 17 kts | 149° |
| 2026-05-07 23:32 | 6.16763 | -75.42485 | 7013 ft | 20 kts | 180° |
| 2026-05-07 23:33 | 6.16613 | -75.42484 | 7007 ft | 24 kts | 180° |
| 2026-05-07 23:33 | 6.16437 | -75.42483 | 6994 ft | 28 kts | 179° |
| 2026-05-07 23:33 | 6.16251 | -75.42482 | 6992 ft | 25 kts | 180° |
| 2026-05-07 23:33 | 6.16062 | -75.42481 | 6986 ft | 28 kts | 179° |
| 2026-05-07 23:34 | 6.15869 | -75.42479 | 6984 ft | 28 kts | 180° |
| 2026-05-07 23:34 | 6.15671 | -75.42478 | 6978 ft | 28 kts | 179° |
| 2026-05-07 23:34 | 6.15484 | -75.42477 | 6980 ft | 22 kts | 179° |
| 2026-05-07 23:34 | 6.15331 | -75.42476 | 6979 ft | 22 kts | 179° |
| 2026-05-07 23:35 | 6.15186 | -75.42475 | 6978 ft | 21 kts | 180° |
| 2026-05-07 23:35 | 6.15042 | -75.42474 | 6977 ft | 16 kts | 180° |
| 2026-05-07 23:35 | 6.14937 | -75.42473 | 6977 ft | 12 kts | 176° |
| 2026-05-07 23:35 | 6.14900 | -75.42418 | 6977 ft | 5 kts | 89° |
| 2026-05-07 23:36 | 6.14900 | -75.42417 | 6977 ft | 0 kts | 89° |
| 2026-05-07 23:37 | 6.14900 | -75.42416 | 6977 ft | 1 kts | 89° |
| 2026-05-07 23:37 | 6.14901 | -75.42376 | 6977 ft | 10 kts | 85° |
| 2026-05-07 23:38 | 6.14950 | -75.42317 | 6977 ft | 10 kts | 53° |
| 2026-05-07 23:38 | 6.14983 | -75.42304 | 6974 ft | 0 kts | 0° |
| 2026-05-07 23:38 | 6.15005 | -75.42304 | 6978 ft | 13 kts | 0° |
| 2026-05-07 23:38 | 6.15343 | -75.42305 | 6981 ft | 83 kts | 360° |
| 2026-05-07 23:39 | 6.16131 | -75.42310 | 6982 ft | 141 kts | 359° |
| 2026-05-07 23:39 | 6.17257 | -75.42323 | 7154 ft | 171 kts | 0° |
| 2026-05-07 23:39 | 6.18442 | -75.42329 | 7971 ft | 170 kts | 2° |
| 2026-05-07 23:39 | 6.19627 | -75.42330 | 8446 ft | 171 kts | 3° |
| 2026-05-07 23:40 | 6.20820 | -75.42307 | 8865 ft | 172 kts | 12° |
| 2026-05-07 23:40 | 6.21854 | -75.41784 | 9270 ft | 167 kts | 51° |
| 2026-05-07 23:40 | 6.22354 | -75.40760 | 9693 ft | 165 kts | 86° |
| 2026-05-07 23:40 | 6.22286 | -75.39619 | 10179 ft | 166 kts | 93° |
| 2026-05-07 23:41 | 6.22467 | -75.38416 | 10348 ft | 187 kts | 68° |
| 2026-05-07 23:41 | 6.23053 | -75.37159 | 10494 ft | 210 kts | 66° |
| 2026-05-07 23:41 | 6.23730 | -75.35762 | 10633 ft | 235 kts | 66° |
| 2026-05-07 23:41 | 6.24489 | -75.34209 | 10871 ft | 259 kts | 65° |
| 2026-05-07 23:42 | 6.25316 | -75.32508 | 11151 ft | 283 kts | 65° |
| 2026-05-07 23:42 | 6.26199 | -75.30698 | 11705 ft | 293 kts | 64° |
| 2026-05-07 23:42 | 6.27106 | -75.28846 | 12425 ft | 298 kts | 64° |
| 2026-05-07 23:42 | 6.28022 | -75.26969 | 13204 ft | 301 kts | 64° |
| 2026-05-07 23:43 | 6.29104 | -75.25163 | 13946 ft | 305 kts | 47° |
| 2026-05-07 23:43 | 6.30869 | -75.24023 | 14559 ft | 312 kts | 19° |
| 2026-05-07 23:43 | 6.33024 | -75.23649 | 15204 ft | 318 kts | 4° |
| 2026-05-07 23:43 | 6.35254 | -75.23700 | 15888 ft | 323 kts | 357° |
| 2026-05-07 23:44 | 6.37503 | -75.23903 | 16566 ft | 326 kts | 356° |
| 2026-05-07 23:44 | 6.39786 | -75.24115 | 17062 ft | 336 kts | 357° |
| 2026-05-07 23:44 | 6.42192 | -75.24275 | 17172 ft | 357 kts | 359° |
| 2026-05-07 23:44 | 6.44724 | -75.24368 | 17538 ft | 368 kts | 0° |
| 2026-05-07 23:45 | 6.47305 | -75.24360 | 18103 ft | 372 kts | 4° |
| 2026-05-07 23:45 | 6.49901 | -75.24197 | 18645 ft | 376 kts | 6° |
| 2026-05-07 23:45 | 6.52512 | -75.23945 | 19192 ft | 378 kts | 7° |
| 2026-05-07 23:45 | 6.55138 | -75.23660 | 19772 ft | 381 kts | 8° |
| 2026-05-07 23:46 | 6.57781 | -75.23371 | 20310 ft | 384 kts | 7° |
| 2026-05-07 23:46 | 6.60449 | -75.23099 | 20868 ft | 387 kts | 7° |
| 2026-05-07 23:46 | 6.63141 | -75.22848 | 21414 ft | 390 kts | 6° |
| 2026-05-07 23:46 | 6.65854 | -75.22611 | 21974 ft | 393 kts | 6° |
| 2026-05-07 23:47 | 6.68588 | -75.22379 | 22533 ft | 396 kts | 6° |
| 2026-05-07 23:47 | 6.71344 | -75.22148 | 23066 ft | 399 kts | 6° |
| 2026-05-07 23:47 | 6.74123 | -75.21915 | 23601 ft | 402 kts | 6° |
| 2026-05-07 23:47 | 6.76928 | -75.21676 | 24026 ft | 405 kts | 6° |
| 2026-05-07 23:48 | 6.79747 | -75.21434 | 24446 ft | 408 kts | 6° |
| 2026-05-07 23:48 | 6.82587 | -75.21188 | 24860 ft | 411 kts | 6° |
| 2026-05-07 23:48 | 6.85446 | -75.20940 | 25267 ft | 414 kts | 6° |
| 2026-05-07 23:48 | 6.88322 | -75.20690 | 25679 ft | 417 kts | 6° |
| 2026-05-07 23:49 | 6.91229 | -75.20435 | 26073 ft | 420 kts | 6° |
| 2026-05-07 23:49 | 6.94141 | -75.20184 | 26457 ft | 422 kts | 6° |
| 2026-05-07 23:49 | 6.97082 | -75.19934 | 26850 ft | 425 kts | 5° |
| 2026-05-07 23:49 | 7.00027 | -75.19608 | 27209 ft | 427 kts | 11° |
| 2026-05-07 23:50 | 7.02900 | -75.18821 | 27593 ft | 429 kts | 21° |
| 2026-05-07 23:50 | 7.05600 | -75.17536 | 27959 ft | 431 kts | 30° |
| 2026-05-07 23:50 | 7.08221 | -75.16042 | 28313 ft | 434 kts | 30° |
| 2026-05-07 23:50 | 7.10863 | -75.14545 | 28679 ft | 437 kts | 29° |
| 2026-05-07 23:51 | 7.13522 | -75.13049 | 29027 ft | 439 kts | 29° |
| 2026-05-07 23:51 | 7.16203 | -75.11545 | 29372 ft | 442 kts | 29° |
| 2026-05-07 23:51 | 7.18895 | -75.10036 | 29714 ft | 445 kts | 29° |
| 2026-05-07 23:51 | 7.21614 | -75.08511 | 30044 ft | 447 kts | 29° |
| 2026-05-07 23:52 | 7.24338 | -75.06981 | 30317 ft | 450 kts | 29° |
| 2026-05-07 23:52 | 7.27073 | -75.05441 | 30603 ft | 452 kts | 29° |
| 2026-05-07 23:52 | 7.28894 | -75.04414 | 30788 ft | 453 kts | 29° |
| 2026-05-07 23:52 | 7.32548 | -75.02352 | 31153 ft | 456 kts | 29° |
| 2026-05-07 23:53 | 7.34420 | -75.01296 | 31334 ft | 457 kts | 29° |
| 2026-05-07 23:53 | 7.38107 | -74.99214 | 31724 ft | 459 kts | 29° |
| 2026-05-07 23:53 | 7.39984 | -74.98154 | 31978 ft | 458 kts | 29° |
| 2026-05-07 23:53 | 7.42766 | -74.96584 | 32346 ft | 458 kts | 29° |
| 2026-05-07 23:54 | 7.45547 | -74.95017 | 32720 ft | 457 kts | 28° |
| 2026-05-07 23:54 | 7.48321 | -74.93455 | 33095 ft | 456 kts | 28° |
| 2026-05-07 23:54 | 7.51091 | -74.91895 | 33467 ft | 456 kts | 28° |
| 2026-05-07 23:54 | 7.53861 | -74.90333 | 33837 ft | 456 kts | 28° |
| 2026-05-07 23:55 | 7.56627 | -74.88772 | 34168 ft | 456 kts | 28° |
| 2026-05-07 23:55 | 7.59389 | -74.87211 | 34506 ft | 455 kts | 28° |
| 2026-05-07 23:55 | 7.62150 | -74.85652 | 34846 ft | 454 kts | 28° |
| 2026-05-07 23:55 | 7.64905 | -74.84097 | 35187 ft | 453 kts | 28° |
| 2026-05-07 23:56 | 7.67647 | -74.82550 | 35517 ft | 452 kts | 28° |
| 2026-05-07 23:56 | 7.70393 | -74.81002 | 35805 ft | 452 kts | 28° |
| 2026-05-07 23:56 | 7.75834 | -74.77931 | 35891 ft | 444 kts | 28° |
| 2026-05-07 23:57 | 7.81206 | -74.74891 | 35889 ft | 442 kts | 28° |
| 2026-05-07 23:57 | 7.86564 | -74.71858 | 35891 ft | 441 kts | 28° |
| 2026-05-07 23:58 | 7.91885 | -74.68854 | 35897 ft | 441 kts | 28° |
| 2026-05-07 23:58 | 7.97240 | -74.65825 | 35895 ft | 440 kts | 28° |
| 2026-05-07 23:59 | 8.02591 | -74.62801 | 35894 ft | 440 kts | 28° |
| 2026-05-07 23:59 | 8.07938 | -74.59780 | 35896 ft | 440 kts | 29° |
| 2026-05-08 00:00 | 8.13284 | -74.56754 | 35898 ft | 440 kts | 29° |
| 2026-05-08 00:00 | 8.18621 | -74.53727 | 35896 ft | 440 kts | 29° |
| 2026-05-08 00:01 | 8.23954 | -74.50710 | 35898 ft | 439 kts | 29° |
| 2026-05-08 00:01 | 8.29283 | -74.47689 | 35903 ft | 439 kts | 29° |
| 2026-05-08 00:02 | 8.34606 | -74.44676 | 35906 ft | 438 kts | 29° |
| 2026-05-08 00:02 | 8.39926 | -74.41662 | 35899 ft | 438 kts | 29° |
| 2026-05-08 00:03 | 8.45204 | -74.38665 | 35897 ft | 438 kts | 29° |
| 2026-05-08 00:03 | 8.50511 | -74.35654 | 35889 ft | 437 kts | 29° |
| 2026-05-08 00:04 | 8.55814 | -74.32649 | 35891 ft | 437 kts | 29° |
| 2026-05-08 00:04 | 8.61111 | -74.29645 | 35882 ft | 436 kts | 29° |
| 2026-05-08 00:05 | 8.66400 | -74.26637 | 35881 ft | 436 kts | 30° |
| 2026-05-08 00:05 | 8.71684 | -74.23629 | 35878 ft | 435 kts | 30° |
| 2026-05-08 00:06 | 8.76964 | -74.20627 | 35873 ft | 435 kts | 30° |
| 2026-05-08 00:06 | 8.82237 | -74.17630 | 35866 ft | 435 kts | 30° |
| 2026-05-08 00:07 | 8.87513 | -74.14640 | 35865 ft | 434 kts | 29° |
| 2026-05-08 00:07 | 8.92784 | -74.11647 | 35864 ft | 434 kts | 30° |
| 2026-05-08 00:08 | 8.98050 | -74.08648 | 35864 ft | 434 kts | 30° |
| 2026-05-08 00:08 | 9.03316 | -74.05651 | 35865 ft | 434 kts | 30° |
| 2026-05-08 00:09 | 9.08587 | -74.02651 | 35866 ft | 434 kts | 30° |
| 2026-05-08 00:09 | 9.13857 | -73.99649 | 35865 ft | 434 kts | 30° |
| 2026-05-08 00:10 | 9.19124 | -73.96647 | 35867 ft | 434 kts | 30° |
| 2026-05-08 00:10 | 9.24390 | -73.93646 | 35870 ft | 434 kts | 30° |
| 2026-05-08 00:11 | 9.29653 | -73.90648 | 35872 ft | 434 kts | 30° |
| 2026-05-08 00:11 | 9.34910 | -73.87653 | 35872 ft | 433 kts | 30° |
| 2026-05-08 00:12 | 9.40148 | -73.84657 | 35868 ft | 432 kts | 30° |
| 2026-05-08 00:12 | 9.45386 | -73.81661 | 35862 ft | 432 kts | 30° |
| 2026-05-08 00:13 | 9.50340 | -73.78836 | 35860 ft | 432 kts | 30° |
| 2026-05-08 00:13 | 9.55616 | -73.75826 | 35860 ft | 432 kts | 30° |
| 2026-05-08 00:14 | 9.60857 | -73.72834 | 35857 ft | 432 kts | 30° |
| 2026-05-08 00:14 | 9.66065 | -73.69862 | 35860 ft | 432 kts | 30° |
| 2026-05-08 00:15 | 9.71303 | -73.66868 | 35859 ft | 432 kts | 30° |
| 2026-05-08 00:15 | 9.76538 | -73.63867 | 35856 ft | 432 kts | 30° |
| 2026-05-08 00:16 | 9.81781 | -73.60867 | 35858 ft | 432 kts | 30° |
| 2026-05-08 00:16 | 9.87023 | -73.57870 | 35860 ft | 432 kts | 30° |
| 2026-05-08 00:17 | 9.92263 | -73.54872 | 35830 ft | 433 kts | 30° |
| 2026-05-08 00:17 | 9.94900 | -73.53363 | 35165 ft | 437 kts | 30° |
| 2026-05-08 00:17 | 9.97542 | -73.51848 | 34649 ft | 435 kts | 30° |
| 2026-05-08 00:18 | 10.00166 | -73.50345 | 34127 ft | 432 kts | 30° |
| 2026-05-08 00:18 | 10.02778 | -73.48847 | 33557 ft | 430 kts | 30° |
| 2026-05-08 00:18 | 10.05369 | -73.47360 | 33048 ft | 426 kts | 30° |
| 2026-05-08 00:18 | 10.07939 | -73.45885 | 32540 ft | 423 kts | 30° |
| 2026-05-08 00:19 | 10.10489 | -73.44423 | 32028 ft | 420 kts | 30° |
| 2026-05-08 00:19 | 10.12955 | -73.43011 | 31546 ft | 417 kts | 30° |
| 2026-05-08 00:19 | 10.15467 | -73.41574 | 31064 ft | 413 kts | 30° |
| 2026-05-08 00:19 | 10.17966 | -73.40143 | 30578 ft | 410 kts | 30° |
| 2026-05-08 00:20 | 10.20440 | -73.38724 | 30112 ft | 407 kts | 30° |
| 2026-05-08 00:20 | 10.22894 | -73.37315 | 29589 ft | 404 kts | 30° |
| 2026-05-08 00:20 | 10.25323 | -73.35922 | 29149 ft | 398 kts | 30° |
| 2026-05-08 00:20 | 10.27719 | -73.34549 | 28702 ft | 393 kts | 30° |
| 2026-05-08 00:21 | 10.30057 | -73.33207 | 28282 ft | 388 kts | 30° |
| 2026-05-08 00:21 | 10.32424 | -73.31847 | 27850 ft | 384 kts | 30° |
| 2026-05-08 00:21 | 10.34704 | -73.30534 | 27420 ft | 380 kts | 30° |
| 2026-05-08 00:21 | 10.36997 | -73.29217 | 26992 ft | 377 kts | 30° |
| 2026-05-08 00:22 | 10.39268 | -73.27912 | 26555 ft | 374 kts | 30° |
| 2026-05-08 00:22 | 10.41521 | -73.26614 | 26099 ft | 371 kts | 30° |
| 2026-05-08 00:22 | 10.43761 | -73.25337 | 25660 ft | 369 kts | 27° |
| 2026-05-08 00:22 | 10.46137 | -73.24363 | 25159 ft | 369 kts | 19° |
| 2026-05-08 00:23 | 10.48575 | -73.23567 | 24691 ft | 367 kts | 19° |
| 2026-05-08 00:23 | 10.51008 | -73.22776 | 24191 ft | 367 kts | 19° |
| 2026-05-08 00:23 | 10.53440 | -73.21985 | 23702 ft | 367 kts | 19° |
| 2026-05-08 00:23 | 10.55871 | -73.21194 | 23155 ft | 367 kts | 19° |
| 2026-05-08 00:24 | 10.58291 | -73.20404 | 22653 ft | 364 kts | 19° |
| 2026-05-08 00:24 | 10.60701 | -73.19618 | 22177 ft | 362 kts | 19° |
| 2026-05-08 00:24 | 10.63092 | -73.18837 | 21705 ft | 360 kts | 19° |
| 2026-05-08 00:24 | 10.65444 | -73.18066 | 21236 ft | 348 kts | 19° |
| 2026-05-08 00:25 | 10.67705 | -73.17326 | 20796 ft | 335 kts | 19° |
| 2026-05-08 00:25 | 10.69916 | -73.16602 | 20375 ft | 334 kts | 19° |
| 2026-05-08 00:25 | 10.72127 | -73.15874 | 19940 ft | 334 kts | 20° |
| 2026-05-08 00:25 | 10.74342 | -73.15143 | 19505 ft | 335 kts | 19° |
| 2026-05-08 00:26 | 10.76562 | -73.14409 | 19090 ft | 336 kts | 19° |
| 2026-05-08 00:26 | 10.78789 | -73.13677 | 18613 ft | 338 kts | 19° |
| 2026-05-08 00:26 | 10.81013 | -73.12951 | 18327 ft | 334 kts | 19° |
| 2026-05-08 00:26 | 10.83223 | -73.12232 | 17878 ft | 334 kts | 19° |
| 2026-05-08 00:27 | 10.85433 | -73.11511 | 17448 ft | 333 kts | 20° |
| 2026-05-08 00:27 | 10.87635 | -73.10788 | 17019 ft | 332 kts | 20° |
| 2026-05-08 00:27 | 10.89834 | -73.10064 | 16604 ft | 332 kts | 20° |
| 2026-05-08 00:27 | 10.92031 | -73.09348 | 16195 ft | 331 kts | 19° |
| 2026-05-08 00:28 | 10.94239 | -73.08678 | 15773 ft | 331 kts | 19° |
| 2026-05-08 00:28 | 10.96458 | -73.08040 | 15372 ft | 331 kts | 18° |
| 2026-05-08 00:28 | 10.98645 | -73.07424 | 14967 ft | 330 kts | 18° |
| 2026-05-08 00:28 | 11.00858 | -73.06800 | 14559 ft | 330 kts | 18° |
| 2026-05-08 00:29 | 11.03118 | -73.06407 | 14150 ft | 332 kts | 4° |
| 2026-05-08 00:29 | 11.05398 | -73.06646 | 13741 ft | 327 kts | 348° |
| 2026-05-08 00:29 | 11.07493 | -73.07477 | 13311 ft | 320 kts | 336° |
| 2026-05-08 00:29 | 11.09465 | -73.08484 | 12916 ft | 317 kts | 336° |
| 2026-05-08 00:30 | 11.11440 | -73.09486 | 12514 ft | 317 kts | 336° |
| 2026-05-08 00:30 | 11.13414 | -73.10486 | 12123 ft | 317 kts | 336° |
| 2026-05-08 00:30 | 11.15393 | -73.11488 | 11719 ft | 317 kts | 336° |
| 2026-05-08 00:30 | 11.17368 | -73.12489 | 11314 ft | 318 kts | 336° |
| 2026-05-08 00:31 | 11.19346 | -73.13493 | 10905 ft | 317 kts | 335° |
| 2026-05-08 00:31 | 11.21316 | -73.14494 | 10473 ft | 314 kts | 335° |
| 2026-05-08 00:31 | 11.23235 | -73.15469 | 10074 ft | 303 kts | 335° |
| 2026-05-08 00:31 | 11.25124 | -73.16427 | 9659 ft | 304 kts | 335° |
| 2026-05-08 00:32 | 11.27020 | -73.17390 | 9240 ft | 304 kts | 335° |
| 2026-05-08 00:32 | 11.28908 | -73.18351 | 8807 ft | 303 kts | 335° |
| 2026-05-08 00:32 | 11.30778 | -73.19303 | 8372 ft | 298 kts | 335° |
| 2026-05-08 00:32 | 11.32622 | -73.20239 | 7946 ft | 295 kts | 335° |
| 2026-05-08 00:33 | 11.34457 | -73.21171 | 7501 ft | 295 kts | 335° |
| 2026-05-08 00:33 | 11.36297 | -73.22096 | 7058 ft | 294 kts | 338° |
| 2026-05-08 00:33 | 11.38252 | -73.22595 | 6600 ft | 288 kts | 359° |
| 2026-05-08 00:33 | 11.40202 | -73.22370 | 6127 ft | 280 kts | 20° |
| 2026-05-08 00:34 | 11.41880 | -73.21514 | 5853 ft | 259 kts | 39° |
| 2026-05-08 00:34 | 11.43237 | -73.20377 | 5575 ft | 248 kts | 42° |
| 2026-05-08 00:34 | 11.44559 | -73.19232 | 5446 ft | 250 kts | 45° |
| 2026-05-08 00:34 | 11.45723 | -73.17920 | 5086 ft | 252 kts | 52° |
| 2026-05-08 00:35 | 11.46832 | -73.16582 | 4797 ft | 237 kts | 52° |
| 2026-05-08 00:35 | 11.47874 | -73.15329 | 4318 ft | 231 kts | 52° |
| 2026-05-08 00:35 | 11.48908 | -73.14082 | 3831 ft | 226 kts | 52° |
| 2026-05-08 00:35 | 11.49888 | -73.12904 | 3634 ft | 209 kts | 52° |
| 2026-05-08 00:36 | 11.50494 | -73.12175 | 3556 ft | 200 kts | 52° |
| 2026-05-08 00:36 | 11.51377 | -73.11096 | 3489 ft | 196 kts | 56° |
| 2026-05-08 00:36 | 11.52093 | -73.09450 | 3284 ft | 192 kts | 80° |
| 2026-05-08 00:36 | 11.52180 | -73.08106 | 2978 ft | 187 kts | 89° |
| 2026-05-08 00:37 | 11.52211 | -73.06797 | 2714 ft | 183 kts | 89° |
| 2026-05-08 00:37 | 11.52248 | -73.05515 | 2456 ft | 180 kts | 89° |
| 2026-05-08 00:37 | 11.52273 | -73.04663 | 2284 ft | 177 kts | 89° |
| 2026-05-08 00:38 | 11.52343 | -73.02153 | 1791 ft | 176 kts | 89° |
| 2026-05-08 00:38 | 11.52377 | -73.00952 | 1551 ft | 161 kts | 89° |
| 2026-05-08 00:38 | 11.52408 | -72.99868 | 1342 ft | 146 kts | 87° |
| 2026-05-08 00:38 | 11.52438 | -72.98868 | 1147 ft | 141 kts | 88° |
| 2026-05-08 00:39 | 11.52468 | -72.97880 | 956 ft | 138 kts | 87° |
| 2026-05-08 00:39 | 11.52496 | -72.96902 | 779 ft | 138 kts | 87° |
| 2026-05-08 00:39 | 11.52523 | -72.95926 | 598 ft | 138 kts | 86° |
| 2026-05-08 00:39 | 11.52551 | -72.94949 | 385 ft | 140 kts | 86° |
| 2026-05-08 00:40 | 11.52580 | -72.93970 | 167 ft | 137 kts | 86° |
| 2026-05-08 00:40 | 11.52608 | -72.93032 | 52 ft | 115 kts | 90° |
| 2026-05-08 00:40 | 11.52622 | -72.92528 | 51 ft | 35 kts | 88° |
| 2026-05-08 00:40 | 11.52627 | -72.92325 | 51 ft | 20 kts | 88° |
| 2026-05-08 00:41 | 11.52630 | -72.92201 | 52 ft | 16 kts | 88° |
| 2026-05-08 00:41 | 11.52634 | -72.92079 | 53 ft | 16 kts | 89° |
| 2026-05-08 00:41 | 11.52638 | -72.91963 | 53 ft | 9 kts | 88° |
| 2026-05-08 00:41 | 11.52639 | -72.91926 | 53 ft | 5 kts | 88° |
| 2026-05-08 00:42 | 11.52656 | -72.91906 | 53 ft | 4 kts | 20° |
| 2026-05-08 00:42 | 11.52697 | -72.91903 | 52 ft | 6 kts | 0° |
| 2026-05-08 00:42 | 11.52711 | -72.91903 | 52 ft | 2 kts | 359° |
| 2026-05-08 00:42 | 11.52735 | -72.91908 | 52 ft | 3 kts | 328° |
| 2026-05-08 00:43 | 11.52743 | -72.91926 | 49 ft | 2 kts | 281° |
| 2026-05-08 00:43 | 11.52762 | -72.91943 | 52 ft | 5 kts | 348° |
| 2026-05-08 00:43 | 11.52787 | -72.91944 | 52 ft | 1 kts | 358° |
| 2026-05-08 00:43 | 11.52788 | -72.91944 | 52 ft | 0 kts | 358° |
| 2026-05-08 00:44 | 11.52789 | -72.91944 | 52 ft | 0 kts | 358° |
| 2026-05-08 00:45 | 11.52793 | -72.91944 | 52 ft | 1 kts | 358° |
| 2026-05-08 00:45 | 11.52795 | -72.91944 | 52 ft | 0 kts | 358° |